Time;durP1;ratioP1;P1;durP2;ratioP2;P2;SDS_P1;SDS_P2;PMS_P1;PMS_P2;Temp;Humidity;BMP_temperature;BMP_pressure;BME280_temperature;BME280_humidity;BME280_pressure;Samples;Min_cycle;Max_cycle;Signal;HPM_P1;HPM_P2
2021/05/22 00:00:22;;;;;;;0.60;0.50;;;;;;;;;;5052487;28;20231;-78
2021/05/22 00:02:50;;;;;;;0.40;0.40;;;;;;;;;;5028332;28;20211;-78
2021/05/22 00:05:18;;;;;;;0.40;0.40;;;;;;;;;;5053625;28;20204;-79
2021/05/22 00:07:46;;;;;;;0.60;0.50;;;;;;;;;;5054167;28;20589;-79
2021/05/22 00:10:14;;;;;;;0.90;0.60;;;;;;;;;;5050634;28;20219;-78
2021/05/22 00:12:44;;;;;;;0.80;0.60;;;;;;;;;;5049901;28;20279;-78
2021/05/22 00:15:16;;;;;;;0.47;0.47;;;;;;;;;;5048303;28;20218;-78
2021/05/22 00:17:44;;;;;;;1.03;0.63;;;;;;;;;;5046615;28;20217;-78
2021/05/22 00:20:13;;;;;;;0.60;0.60;;;;;;;;;;5055584;28;20234;-78
2021/05/22 00:22:41;;;;;;;0.80;0.60;;;;;;;;;;5075858;28;20212;-81
2021/05/22 00:25:11;;;;;;;0.73;0.60;;;;;;;;;;5039085;28;20682;-78
2021/05/22 00:27:39;;;;;;;1.07;0.60;;;;;;;;;;5039438;28;20236;-78
2021/05/22 00:30:09;;;;;;;0.50;0.50;;;;;;;;;;5031466;28;20231;-78
2021/05/22 00:32:38;;;;;;;0.50;0.40;;;;;;;;;;5026246;28;20229;-78
2021/05/22 00:35:07;;;;;;;0.90;0.60;;;;;;;;;;5045954;28;20219;-80
2021/05/22 00:37:35;;;;;;;0.60;0.50;;;;;;;;;;5047247;28;20649;-81
2021/05/22 00:40:03;;;;;;;0.40;0.40;;;;;;;;;;5042536;28;20231;-79
2021/05/22 00:42:33;;;;;;;0.47;0.47;;;;;;;;;;5042678;28;20238;-81
2021/05/22 00:45:16;;;;;;;0.50;0.50;;;;;;;;;;5044178;28;20575;-78
2021/05/22 00:47:47;;;;;;;0.60;0.50;;;;;;;;;;5035443;28;20223;-80
2021/05/22 00:50:19;;;;;;;0.73;0.33;;;;;;;;;;5042133;28;20238;-78
2021/05/22 00:52:47;;;;;;;0.40;0.40;;;;;;;;;;5037420;28;20683;-78
2021/05/22 00:55:16;;;;;;;0.80;0.50;;;;;;;;;;5021931;28;20570;-78
2021/05/22 00:57:44;;;;;;;1.10;0.77;;;;;;;;;;5040748;28;20199;-77
2021/05/22 01:00:14;;;;;;;0.47;0.47;;;;;;;;;;5041552;28;20233;-83
2021/05/22 01:02:43;;;;;;;0.50;0.50;;;;;;;;;;5050179;28;20685;-78
2021/05/22 01:05:13;;;;;;;0.50;0.40;;;;;;;;;;5045103;28;20679;-78
2021/05/22 01:07:43;;;;;;;0.40;0.40;;;;;;;;;;5040599;28;20543;-79
2021/05/22 01:10:12;;;;;;;2.20;0.50;;;;;;;;;;5038240;28;20223;-78
2021/05/22 01:12:43;;;;;;;0.40;0.40;;;;;;;;;;5032140;28;20195;-82
2021/05/22 01:15:13;;;;;;;0.60;0.60;;;;;;;;;;5039709;28;20669;-79
2021/05/22 01:17:46;;;;;;;0.43;0.40;;;;;;;;;;5048226;28;20225;-78
2021/05/22 01:20:32;;;;;;;0.80;0.50;;;;;;;;;;5055650;28;20220;-81
2021/05/22 01:23:03;;;;;;;0.40;0.40;;;;;;;;;;5044672;28;20199;-78
2021/05/22 01:25:35;;;;;;;0.43;0.43;;;;;;;;;;5030697;28;20220;-80
2021/05/22 01:28:05;;;;;;;0.50;0.50;;;;;;;;;;5061955;28;20230;-80
2021/05/22 01:30:34;;;;;;;0.33;0.33;;;;;;;;;;5049514;28;20221;-78
2021/05/22 01:33:03;;;;;;;0.67;0.43;;;;;;;;;;5037479;28;20218;-81
2021/05/22 01:35:31;;;;;;;0.40;0.40;;;;;;;;;;5056585;28;20210;-78
2021/05/22 01:37:59;;;;;;;0.43;0.40;;;;;;;;;;5040184;28;20664;-78
2021/05/22 01:40:27;;;;;;;0.30;0.30;;;;;;;;;;5042439;28;20239;-78
2021/05/22 01:42:56;;;;;;;0.97;0.50;;;;;;;;;;5036239;28;20207;-78
2021/05/22 01:45:26;;;;;;;0.30;0.30;;;;;;;;;;5066351;28;20203;-79
2021/05/22 01:48:07;;;;;;;0.40;0.40;;;;;;;;;;5039498;28;20282;-81
2021/05/22 01:50:35;;;;;;;0.30;0.30;;;;;;;;;;5039169;28;20223;-79
2021/05/22 01:53:08;;;;;;;0.50;0.50;;;;;;;;;;5082072;28;20412;-78
2021/05/22 01:55:37;;;;;;;2.00;0.40;;;;;;;;;;5027802;28;20653;-78
2021/05/22 01:58:07;;;;;;;0.47;0.47;;;;;;;;;;5041240;28;20254;-77
2021/05/22 02:00:34;;;;;;;0.77;0.77;;;;;;;;;;5028734;28;20224;-77
2021/05/22 02:03:08;;;;;;;0.30;0.30;;;;;;;;;;5037678;28;20208;-78
2021/05/22 02:05:36;;;;;;;1.00;0.40;;;;;;;;;;5045795;28;20207;-79
2021/05/22 02:08:08;;;;;;;0.40;0.40;;;;;;;;;;5024898;28;20531;-77
2021/05/22 02:10:36;;;;;;;4.33;0.53;;;;;;;;;;5035968;28;20231;-77
2021/05/22 02:13:04;;;;;;;0.50;0.40;;;;;;;;;;5020235;28;20556;-77
2021/05/22 02:15:34;;;;;;;1.50;0.53;;;;;;;;;;5047562;28;20545;-77
2021/05/22 02:18:03;;;;;;;0.47;0.47;;;;;;;;;;5044007;28;20483;-77
2021/05/22 02:20:32;;;;;;;0.40;0.40;;;;;;;;;;5042211;28;20698;-77
2021/05/22 02:23:01;;;;;;;0.30;0.30;;;;;;;;;;5061858;28;20207;-78
2021/05/22 02:25:29;;;;;;;1.67;0.40;;;;;;;;;;5054307;28;20207;-77
2021/05/22 02:27:59;;;;;;;0.40;0.40;;;;;;;;;;5045742;28;20218;-77
2021/05/22 02:30:27;;;;;;;0.90;0.50;;;;;;;;;;5049861;28;20243;-77
2021/05/22 02:32:56;;;;;;;0.40;0.40;;;;;;;;;;5024368;28;20199;-78
2021/05/22 02:35:25;;;;;;;0.60;0.50;;;;;;;;;;5042320;28;20580;-77
2021/05/22 02:37:55;;;;;;;0.60;0.50;;;;;;;;;;5043354;28;20196;-78
2021/05/22 02:40:26;;;;;;;0.30;0.30;;;;;;;;;;5043472;28;20232;-77
2021/05/22 02:42:56;;;;;;;0.70;0.60;;;;;;;;;;5044680;28;20195;-78
2021/05/22 02:45:25;;;;;;;0.50;0.50;;;;;;;;;;5072212;28;20664;-79
2021/05/22 02:47:56;;;;;;;0.80;0.50;;;;;;;;;;5015952;28;20207;-77
2021/05/22 02:50:25;;;;;;;0.53;0.53;;;;;;;;;;5040200;28;20227;-77
2021/05/22 02:52:54;;;;;;;0.53;0.50;;;;;;;;;;5041816;28;20688;-77
2021/05/22 02:55:22;;;;;;;0.50;0.50;;;;;;;;;;5041853;28;20214;-77
2021/05/22 02:57:51;;;;;;;0.50;0.50;;;;;;;;;;5042346;28;20204;-77
2021/05/22 03:00:20;;;;;;;0.40;0.40;;;;;;;;;;5037641;28;20219;-77
2021/05/22 03:02:49;;;;;;;0.60;0.60;;;;;;;;;;5041414;28;20204;-77
2021/05/22 03:05:18;;;;;;;0.50;0.50;;;;;;;;;;5056132;28;20585;-79
2021/05/22 03:07:46;;;;;;;0.53;0.53;;;;;;;;;;5038197;28;20206;-77
2021/05/22 03:10:15;;;;;;;0.50;0.50;;;;;;;;;;5049603;28;20227;-77
2021/05/22 03:12:43;;;;;;;0.60;0.60;;;;;;;;;;5044252;28;20199;-77
2021/05/22 03:15:12;;;;;;;0.57;0.53;;;;;;;;;;5041829;28;20219;-77
2021/05/22 03:17:40;;;;;;;1.33;0.50;;;;;;;;;;5036773;28;20204;-79
2021/05/22 03:20:09;;;;;;;0.40;0.40;;;;;;;;;;5047858;28;20223;-78
2021/05/22 03:22:38;;;;;;;0.60;0.50;;;;;;;;;;5042685;28;20215;-77
2021/05/22 03:25:07;;;;;;;0.40;0.40;;;;;;;;;;5027047;28;20214;-77
2021/05/22 03:27:36;;;;;;;0.47;0.47;;;;;;;;;;5046935;28;20215;-77
2021/05/22 03:30:07;;;;;;;0.60;0.60;;;;;;;;;;5040768;28;20259;-77
2021/05/22 03:32:35;;;;;;;0.67;0.50;;;;;;;;;;5040300;28;20214;-77
2021/05/22 03:35:04;;;;;;;0.80;0.57;;;;;;;;;;5038932;28;20204;-77
2021/05/22 03:37:32;;;;;;;0.57;0.57;;;;;;;;;;5043020;28;20198;-77
2021/05/22 03:40:01;;;;;;;1.27;0.60;;;;;;;;;;5024720;28;20235;-78
2021/05/22 03:42:29;;;;;;;0.40;0.40;;;;;;;;;;5040114;28;20208;-77
2021/05/22 03:44:58;;;;;;;0.77;0.60;;;;;;;;;;5040682;28;20237;-77
2021/05/22 03:47:26;;;;;;;0.70;0.50;;;;;;;;;;5040072;28;20281;-77
2021/05/22 03:49:54;;;;;;;0.50;0.50;;;;;;;;;;5038216;28;20242;-82
2021/05/22 03:52:22;;;;;;;0.83;0.70;;;;;;;;;;5046019;28;20203;-77
2021/05/22 03:54:50;;;;;;;0.50;0.50;;;;;;;;;;5022433;28;20208;-77
2021/05/22 03:57:19;;;;;;;0.63;0.50;;;;;;;;;;5041225;28;20203;-77
2021/05/22 03:59:48;;;;;;;1.27;0.70;;;;;;;;;;5043855;28;20224;-77
2021/05/22 04:02:16;;;;;;;1.30;0.70;;;;;;;;;;5056846;28;20218;-77
2021/05/22 04:04:44;;;;;;;0.90;0.73;;;;;;;;;;5044175;28;20964;-77
2021/05/22 04:07:12;;;;;;;0.60;0.60;;;;;;;;;;5044631;28;20203;-78
2021/05/22 04:09:40;;;;;;;1.00;0.70;;;;;;;;;;5040187;28;20242;-78
2021/05/22 04:12:08;;;;;;;0.57;0.57;;;;;;;;;;5027988;28;20203;-79
2021/05/22 04:14:37;;;;;;;0.50;0.50;;;;;;;;;;5047788;28;20207;-78
2021/05/22 04:17:05;;;;;;;0.80;0.60;;;;;;;;;;5041573;28;20223;-78
2021/05/22 04:19:33;;;;;;;0.53;0.53;;;;;;;;;;5041618;28;20231;-78
2021/05/22 04:22:01;;;;;;;0.60;0.60;;;;;;;;;;5043798;28;20701;-78
2021/05/22 04:24:29;;;;;;;0.60;0.50;;;;;;;;;;5040123;28;20215;-78
2021/05/22 04:26:57;;;;;;;0.90;0.70;;;;;;;;;;5023602;28;20226;-78
2021/05/22 04:29:25;;;;;;;0.70;0.50;;;;;;;;;;5041891;28;20235;-79
2021/05/22 04:31:54;;;;;;;1.33;0.70;;;;;;;;;;5041691;28;20219;-78
2021/05/22 04:34:23;;;;;;;0.97;0.67;;;;;;;;;;5055092;28;20215;-77
2021/05/22 04:36:51;;;;;;;0.50;0.50;;;;;;;;;;5043948;28;20202;-77
2021/05/22 04:39:19;;;;;;;0.70;0.60;;;;;;;;;;5018401;28;20600;-77
2021/05/22 04:41:47;;;;;;;1.80;0.60;;;;;;;;;;5038028;28;20226;-78
2021/05/22 04:44:15;;;;;;;0.90;0.73;;;;;;;;;;5042045;28;20211;-77
2021/05/22 04:46:43;;;;;;;1.43;0.60;;;;;;;;;;5026134;28;20199;-78
2021/05/22 04:49:13;;;;;;;0.70;0.70;;;;;;;;;;5035696;28;20230;-77
2021/05/22 04:51:41;;;;;;;0.73;0.70;;;;;;;;;;5070421;28;20243;-78
2021/05/22 04:54:09;;;;;;;2.00;0.97;;;;;;;;;;5065528;28;20195;-78
2021/05/22 04:56:38;;;;;;;3.23;1.10;;;;;;;;;;5043595;28;20203;-77
2021/05/22 04:59:06;;;;;;;0.60;0.60;;;;;;;;;;5060122;28;20245;-80
2021/05/22 05:01:34;;;;;;;1.80;0.70;;;;;;;;;;5034725;28;20212;-77
2021/05/22 05:04:02;;;;;;;0.80;0.60;;;;;;;;;;5032379;28;20215;-77
2021/05/22 05:06:31;;;;;;;1.23;0.73;;;;;;;;;;5047963;28;20215;-81
2021/05/22 05:08:59;;;;;;;2.73;1.00;;;;;;;;;;5042413;28;20227;-80
2021/05/22 05:11:27;;;;;;;1.70;0.77;;;;;;;;;;5038474;28;20602;-78
2021/05/22 05:13:55;;;;;;;1.23;0.70;;;;;;;;;;5038263;28;20205;-78
2021/05/22 05:16:23;;;;;;;1.43;0.90;;;;;;;;;;5038571;28;20209;-78
2021/05/22 05:18:51;;;;;;;1.43;0.70;;;;;;;;;;5048858;28;20223;-78
2021/05/22 05:21:19;;;;;;;0.97;0.80;;;;;;;;;;5068266;28;20202;-78
2021/05/22 05:23:48;;;;;;;0.93;0.80;;;;;;;;;;5042204;28;20192;-78
2021/05/22 05:26:16;;;;;;;0.83;0.60;;;;;;;;;;5019541;28;20212;-80
2021/05/22 05:28:44;;;;;;;1.03;0.70;;;;;;;;;;5037705;28;20578;-80
2021/05/22 05:31:13;;;;;;;1.87;0.60;;;;;;;;;;5034454;28;20597;-80
2021/05/22 05:33:41;;;;;;;1.03;0.80;;;;;;;;;;5022700;28;20643;-80
2021/05/22 05:36:08;;;;;;;1.63;0.70;;;;;;;;;;5042569;28;20210;-78
2021/05/22 05:38:36;;;;;;;2.23;0.93;;;;;;;;;;5040038;28;20200;-78
2021/05/22 05:41:05;;;;;;;2.03;0.80;;;;;;;;;;5035368;28;20238;-77
2021/05/22 05:43:33;;;;;;;0.80;0.67;;;;;;;;;;5020613;28;20204;-78
2021/05/22 05:46:01;;;;;;;1.23;1.00;;;;;;;;;;5037110;28;20570;-78
2021/05/22 05:48:29;;;;;;;5.57;0.90;;;;;;;;;;5025215;28;20222;-78
2021/05/22 05:50:57;;;;;;;1.43;0.73;;;;;;;;;;5049504;28;20238;-79
2021/05/22 05:53:25;;;;;;;0.93;0.90;;;;;;;;;;5048029;28;20200;-79
2021/05/22 05:55:53;;;;;;;1.70;0.80;;;;;;;;;;5081967;28;20195;-78
2021/05/22 05:58:22;;;;;;;2.13;0.80;;;;;;;;;;5048758;28;20216;-79
2021/05/22 06:00:50;;;;;;;1.60;0.93;;;;;;;;;;5048994;28;20199;-78
2021/05/22 06:03:25;;;;;;;0.63;0.63;;;;;;;;;;5029275;28;20222;-78
2021/05/22 06:05:53;;;;;;;2.93;0.80;;;;;;;;;;5053926;28;20225;-78
2021/05/22 06:08:21;;;;;;;1.37;0.80;;;;;;;;;;5026770;28;20700;-81
2021/05/22 06:10:51;;;;;;;2.17;0.90;;;;;;;;;;5041765;28;20701;-82
2021/05/22 06:13:24;;;;;;;1.87;0.87;;;;;;;;;;5040848;28;20665;-79
2021/05/22 06:16:00;;;;;;;2.00;0.97;;;;;;;;;;5043915;28;20203;-79
2021/05/22 06:18:31;;;;;;;1.50;0.73;;;;;;;;;;5045634;28;20199;-77
2021/05/22 06:20:59;;;;;;;2.87;0.83;;;;;;;;;;5036990;28;20672;-78
2021/05/22 06:23:28;;;;;;;12.80;1.47;;;;;;;;;;5045394;28;20222;-81
2021/05/22 06:25:57;;;;;;;3.23;0.80;;;;;;;;;;5042837;28;20230;-81
2021/05/22 06:28:27;;;;;;;4.67;1.00;;;;;;;;;;5078385;28;20203;-78
2021/05/22 06:30:55;;;;;;;2.27;1.00;;;;;;;;;;5045825;28;20219;-78
2021/05/22 06:33:23;;;;;;;1.47;0.90;;;;;;;;;;5054777;28;20227;-78
2021/05/22 06:35:52;;;;;;;2.03;1.00;;;;;;;;;;5049065;28;20227;-78
2021/05/22 06:38:21;;;;;;;1.77;1.00;;;;;;;;;;5063756;28;20219;-78
2021/05/22 06:40:49;;;;;;;2.80;1.20;;;;;;;;;;5030762;28;20203;-79
2021/05/22 06:43:17;;;;;;;1.67;0.90;;;;;;;;;;5043270;28;20207;-78
2021/05/22 06:45:57;;;;;;;3.63;1.20;;;;;;;;;;5046239;28;20208;-78
2021/05/22 06:48:25;;;;;;;2.93;1.00;;;;;;;;;;5034908;28;20660;-78
2021/05/22 06:50:53;;;;;;;3.87;0.97;;;;;;;;;;5047178;28;20220;-78
2021/05/22 06:53:21;;;;;;;2.30;0.83;;;;;;;;;;5035287;28;20219;-77
2021/05/22 06:55:49;;;;;;;4.50;1.00;;;;;;;;;;5034414;28;20208;-77
2021/05/22 06:58:18;;;;;;;3.37;1.10;;;;;;;;;;5058011;28;20200;-77
2021/05/22 07:00:47;;;;;;;1.33;0.90;;;;;;;;;;5052859;28;20223;-77
2021/05/22 07:03:15;;;;;;;2.77;1.20;;;;;;;;;;5041012;28;20211;-79
2021/05/22 07:05:43;;;;;;;2.67;0.90;;;;;;;;;;5045624;28;20214;-79
2021/05/22 07:08:11;;;;;;;3.53;1.33;;;;;;;;;;5042419;28;20200;-80
2021/05/22 07:10:39;;;;;;;2.07;1.57;;;;;;;;;;5048783;28;20215;-80
2021/05/22 07:13:08;;;;;;;3.77;1.00;;;;;;;;;;5064819;28;20223;-79
2021/05/22 07:15:37;;;;;;;2.23;1.00;;;;;;;;;;5071226;28;20199;-79
2021/05/22 07:18:06;;;;;;;2.20;1.10;;;;;;;;;;5066166;28;20214;-77
2021/05/22 07:20:34;;;;;;;4.07;0.90;;;;;;;;;;5046631;28;20227;-76
2021/05/22 07:23:02;;;;;;;2.07;0.83;;;;;;;;;;5032445;28;20205;-76
2021/05/22 07:25:30;;;;;;;3.13;1.10;;;;;;;;;;5028381;28;20211;-79
2021/05/22 07:27:58;;;;;;;3.07;0.90;;;;;;;;;;5033231;28;21158;-81
2021/05/22 07:30:26;;;;;;;3.53;1.00;;;;;;;;;;5022181;28;20234;-76
2021/05/22 07:32:54;;;;;;;3.37;1.10;;;;;;;;;;5033592;28;20228;-76
2021/05/22 07:35:23;;;;;;;1.90;1.10;;;;;;;;;;5034614;28;20211;-74
2021/05/22 07:37:51;;;;;;;1.83;1.00;;;;;;;;;;5028692;28;20215;-75
2021/05/22 07:40:19;;;;;;;3.03;1.00;;;;;;;;;;5013110;28;20235;-77
2021/05/22 07:42:48;;;;;;;1.00;0.90;;;;;;;;;;5037280;28;20210;-75
2021/05/22 07:45:18;;;;;;;3.60;0.90;;;;;;;;;;5030851;28;20204;-76
2021/05/22 07:47:46;;;;;;;5.37;2.07;;;;;;;;;;5043048;28;20203;-78
2021/05/22 07:50:14;;;;;;;3.57;1.70;;;;;;;;;;5031041;28;20223;-76
2021/05/22 07:52:43;;;;;;;4.87;1.20;;;;;;;;;;5055623;28;20246;-76
2021/05/22 07:55:12;;;;;;;4.70;1.00;;;;;;;;;;5025620;28;20551;-76
2021/05/22 07:57:41;;;;;;;3.63;1.20;;;;;;;;;;5037180;28;20199;-79
2021/05/22 08:00:10;;;;;;;1.57;0.90;;;;;;;;;;5039590;28;20226;-76
2021/05/22 08:02:38;;;;;;;2.60;1.03;;;;;;;;;;5042872;28;20192;-79
2021/05/22 08:05:07;;;;;;;2.63;1.37;;;;;;;;;;5027297;28;20203;-76
2021/05/22 08:07:36;;;;;;;3.20;0.97;;;;;;;;;;5045499;28;20206;-76
2021/05/22 08:10:06;;;;;;;4.70;1.00;;;;;;;;;;5033949;28;20235;-76
2021/05/22 08:12:34;;;;;;;3.33;1.20;;;;;;;;;;5035665;28;20230;-76
2021/05/22 08:15:04;;;;;;;4.50;1.30;;;;;;;;;;5039882;28;20231;-76
2021/05/22 08:17:32;;;;;;;1.63;1.20;;;;;;;;;;5018654;28;20211;-76
2021/05/22 08:20:00;;;;;;;1.70;1.00;;;;;;;;;;5044819;28;20230;-76
2021/05/22 08:22:29;;;;;;;2.97;1.10;;;;;;;;;;5046227;28;20196;-76
2021/05/22 08:24:58;;;;;;;3.70;1.47;;;;;;;;;;5029621;28;20195;-76
2021/05/22 08:27:27;;;;;;;1.57;0.80;;;;;;;;;;5028309;28;20219;-78
2021/05/22 08:29:56;;;;;;;3.63;1.03;;;;;;;;;;5048394;28;20231;-75
2021/05/22 08:32:24;;;;;;;3.40;1.10;;;;;;;;;;5046621;28;20219;-76
2021/05/22 08:34:54;;;;;;;1.40;1.00;;;;;;;;;;5044271;28;20218;-75
2021/05/22 08:37:23;;;;;;;1.67;1.00;;;;;;;;;;5045923;28;20679;-77
2021/05/22 08:39:52;;;;;;;1.60;0.90;;;;;;;;;;5045403;28;20226;-75
2021/05/22 08:42:21;;;;;;;2.37;0.97;;;;;;;;;;5030260;28;20210;-75
2021/05/22 08:44:50;;;;;;;3.57;1.20;;;;;;;;;;5051977;28;20211;-75
2021/05/22 08:47:19;;;;;;;2.67;1.23;;;;;;;;;;5046263;28;20214;-75
2021/05/22 08:49:48;;;;;;;2.10;0.90;;;;;;;;;;5027077;28;20219;-77
2021/05/22 08:52:17;;;;;;;4.13;1.50;;;;;;;;;;5019326;28;20638;-75
2021/05/22 08:54:46;;;;;;;2.20;1.23;;;;;;;;;;5032588;28;20835;-75
2021/05/22 08:57:14;;;;;;;2.30;1.17;;;;;;;;;;5024275;28;20211;-75
2021/05/22 08:59:44;;;;;;;5.03;1.20;;;;;;;;;;5028665;28;20700;-76
2021/05/22 09:02:15;;;;;;;3.17;1.60;;;;;;;;;;5041114;28;20203;-76
2021/05/22 09:05:07;;;;;;;2.50;0.87;;;;;;;;;;5025110;28;20198;-74
2021/05/22 09:07:36;;;;;;;3.40;0.90;;;;;;;;;;5053827;28;20208;-74
2021/05/22 09:10:08;;;;;;;3.33;1.43;;;;;;;;;;5031153;28;20228;-76
2021/05/22 09:12:37;;;;;;;3.30;1.00;;;;;;;;;;5028383;28;20569;-76
2021/05/22 09:15:09;;;;;;;3.10;1.00;;;;;;;;;;5022196;28;20215;-76
2021/05/22 09:17:44;;;;;;;2.03;1.10;;;;;;;;;;5035392;28;20680;-75
2021/05/22 09:20:18;;;;;;;2.80;1.20;;;;;;;;;;5038421;28;20258;-79
2021/05/22 09:22:56;;;;;;;0.73;0.73;;;;;;;;;;5077099;28;20202;-78
2021/05/22 09:25:24;;;;;;;3.17;0.90;;;;;;;;;;5046222;28;20687;-75
2021/05/22 09:27:53;;;;;;;2.37;1.10;;;;;;;;;;5034091;28;20212;-77
2021/05/22 09:30:24;;;;;;;3.57;1.20;;;;;;;;;;5051430;28;20240;-76
2021/05/22 09:32:53;;;;;;;3.17;1.30;;;;;;;;;;5041778;28;20220;-76
2021/05/22 09:35:23;;;;;;;2.87;1.10;;;;;;;;;;5035283;28;20649;-76
2021/05/22 09:37:53;;;;;;;3.60;1.20;;;;;;;;;;5027408;28;20207;-75
2021/05/22 09:40:23;;;;;;;4.53;0.90;;;;;;;;;;5039355;28;20226;-78
2021/05/22 09:42:52;;;;;;;3.40;0.90;;;;;;;;;;5039489;28;20215;-77
2021/05/22 09:45:31;;;;;;;2.83;1.10;;;;;;;;;;5040780;28;23425;-77
2021/05/22 09:48:09;;;;;;;4.20;1.20;;;;;;;;;;5028275;28;20211;-78
2021/05/22 09:50:40;;;;;;;2.30;0.97;;;;;;;;;;5032300;28;20622;-76
2021/05/22 09:53:29;;;;;;;1.97;1.00;;;;;;;;;;5044516;28;20227;-77
2021/05/22 09:56:11;;;;;;;1.60;0.90;;;;;;;;;;5041985;28;20689;-77
2021/05/22 09:58:41;;;;;;;3.50;1.40;;;;;;;;;;5043648;28;20208;-75
2021/05/22 10:01:10;;;;;;;3.83;1.10;;;;;;;;;;5025712;28;20200;-76
2021/05/22 10:03:39;;;;;;;1.60;0.80;;;;;;;;;;5013757;28;20195;-77
2021/05/22 10:06:08;;;;;;;2.93;0.80;;;;;;;;;;5031944;28;20208;-77
2021/05/22 10:08:36;;;;;;;3.53;1.10;;;;;;;;;;5029948;28;20199;-75
2021/05/22 10:11:04;;;;;;;3.23;1.00;;;;;;;;;;5044051;28;20200;-75
2021/05/22 10:13:33;;;;;;;2.60;1.47;;;;;;;;;;5029970;28;20268;-76
2021/05/22 10:16:02;;;;;;;2.43;1.13;;;;;;;;;;5029917;28;20203;-75
2021/05/22 10:18:31;;;;;;;3.03;1.10;;;;;;;;;;5032329;28;20215;-77
2021/05/22 10:21:03;;;;;;;1.50;0.83;;;;;;;;;;5031433;28;20583;-78
2021/05/22 10:23:32;;;;;;;2.10;0.97;;;;;;;;;;5032413;28;20208;-76
2021/05/22 10:26:00;;;;;;;2.10;1.03;;;;;;;;;;5043131;28;20696;-76
2021/05/22 10:28:28;;;;;;;1.10;1.00;;;;;;;;;;5033342;28;20206;-74
2021/05/22 10:30:57;;;;;;;3.60;1.40;;;;;;;;;;5029915;28;20219;-75
2021/05/22 10:33:25;;;;;;;1.97;0.87;;;;;;;;;;5028632;28;20705;-75
2021/05/22 10:35:56;;;;;;;1.97;1.30;;;;;;;;;;5038851;28;20211;-74
2021/05/22 10:38:42;;;;;;;2.83;1.17;;;;;;;;;;5053100;28;20199;-74
2021/05/22 10:41:12;;;;;;;3.10;1.00;;;;;;;;;;5045426;28;20206;-77
2021/05/22 10:43:45;;;;;;;1.97;1.10;;;;;;;;;;5027869;28;20211;-76
2021/05/22 10:46:14;;;;;;;3.27;1.17;;;;;;;;;;5043965;28;20207;-77
2021/05/22 10:48:48;;;;;;;2.70;1.07;;;;;;;;;;5034787;28;20240;-76
2021/05/22 10:51:34;;;;;;;1.70;0.90;;;;;;;;;;5037964;28;20593;-76
2021/05/22 10:54:06;;;;;;;1.97;0.80;;;;;;;;;;5029802;28;20245;-76
2021/05/22 10:56:37;;;;;;;4.68;1.38;;;;;;;;;;5018037;28;20199;-75
2021/05/22 10:59:15;;;;;;;2.63;1.10;;;;;;;;;;5043844;28;20224;-75
2021/05/22 11:01:47;;;;;;;4.05;1.15;;;;;;;;;;5059829;28;20207;-75
2021/05/22 11:04:26;;;;;;;1.83;1.00;;;;;;;;;;5039409;28;20537;-75
2021/05/22 11:06:56;;;;;;;2.03;1.08;;;;;;;;;;5040933;28;20600;-78
2021/05/22 11:09:51;;;;;;;3.60;1.05;;;;;;;;;;5021780;28;20998;-75
2021/05/22 11:12:45;;;;;;;2.78;1.05;;;;;;;;;;5045765;28;20211;-73
2021/05/22 11:15:54;;;;;;;1.25;1.08;;;;;;;;;;5047076;28;20222;-73
2021/05/22 11:18:24;;;;;;;1.70;0.98;;;;;;;;;;5039047;28;20199;-74
2021/05/22 11:21:12;;;;;;;2.05;1.05;;;;;;;;;;5039813;28;20218;-73
2021/05/22 11:24:09;;;;;;;2.28;1.08;;;;;;;;;;5031633;28;20196;-74
2021/05/22 11:27:08;;;;;;;2.60;1.10;;;;;;;;;;5038690;28;20226;-74
2021/05/22 11:29:55;;;;;;;1.27;1.13;;;;;;;;;;5051815;28;20230;-74
2021/05/22 11:32:52;;;;;;;2.35;2.03;;;;;;;;;;5051024;28;20196;-74
2021/05/22 11:35:34;;;;;;;3.05;1.75;;;;;;;;;;5041260;28;20222;-74
2021/05/22 11:38:43;;;;;;;1.58;1.13;;;;;;;;;;5043114;28;20215;-75
2021/05/22 11:41:12;;;;;;;2.58;0.88;;;;;;;;;;5032853;28;20214;-75
2021/05/22 11:43:44;;;;;;;6.53;0.95;;;;;;;;;;5052603;28;20211;-74
2021/05/22 11:46:15;;;;;;;1.88;1.00;;;;;;;;;;5043713;28;20200;-75
2021/05/22 11:48:48;;;;;;;1.63;1.00;;;;;;;;;;5061795;28;20231;-75
2021/05/22 11:51:22;;;;;;;3.78;1.65;;;;;;;;;;5044964;28;20207;-75
2021/05/22 11:53:54;;;;;;;1.25;1.00;;;;;;;;;;5048335;28;20223;-75
2021/05/22 11:56:22;;;;;;;3.05;1.17;;;;;;;;;;5042953;28;20313;-75
2021/05/22 11:58:52;;;;;;;2.97;2.30;;;;;;;;;;5035856;28;20700;-76
2021/05/22 12:01:22;;;;;;;5.43;3.42;;;;;;;;;;5036465;28;20207;-75
2021/05/22 12:03:52;;;;;;;2.00;1.35;;;;;;;;;;5033405;28;20215;-75
2021/05/22 12:06:29;;;;;;;1.20;1.10;;;;;;;;;;5038306;28;20230;-75
2021/05/22 12:09:09;;;;;;;2.45;1.35;;;;;;;;;;5066316;28;20235;-75
2021/05/22 12:11:43;;;;;;;1.02;1.00;;;;;;;;;;5026969;28;20569;-75
2021/05/22 12:14:12;;;;;;;1.17;0.90;;;;;;;;;;5048029;28;20226;-74
2021/05/22 12:16:40;;;;;;;1.27;0.98;;;;;;;;;;5034681;28;20219;-74
2021/05/22 12:19:13;;;;;;;2.55;1.20;;;;;;;;;;5036613;28;20234;-74
2021/05/22 12:21:43;;;;;;;1.98;1.00;;;;;;;;;;5047899;28;20205;-74
2021/05/22 12:24:12;;;;;;;1.52;1.10;;;;;;;;;;5039613;28;20310;-74
2021/05/22 12:26:47;;;;;;;2.63;1.15;;;;;;;;;;5042045;28;20211;-75
2021/05/22 12:29:16;;;;;;;1.42;1.10;;;;;;;;;;5033434;28;20589;-74
2021/05/22 12:31:49;;;;;;;1.02;0.93;;;;;;;;;;5026260;28;20196;-76
2021/05/22 12:34:23;;;;;;;1.95;1.00;;;;;;;;;;5046484;28;20242;-75
2021/05/22 12:37:04;;;;;;;1.92;1.00;;;;;;;;;;5032317;28;20206;-73
2021/05/22 12:39:34;;;;;;;1.42;1.17;;;;;;;;;;5042583;28;20591;-76
2021/05/22 12:42:20;;;;;;;2.33;1.60;;;;;;;;;;5046907;28;20203;-75
2021/05/22 12:44:50;;;;;;;1.33;1.00;;;;;;;;;;5055372;28;20199;-74
2021/05/22 12:47:21;;;;;;;1.77;1.00;;;;;;;;;;5064694;28;20200;-76
2021/05/22 12:49:57;;;;;;;3.72;0.90;;;;;;;;;;5058965;28;20659;-77
2021/05/22 12:52:26;;;;;;;1.52;1.05;;;;;;;;;;5035154;28;20206;-75
2021/05/22 12:54:55;;;;;;;0.95;0.80;;;;;;;;;;5014349;28;20220;-77
2021/05/22 12:57:25;;;;;;;2.30;1.17;;;;;;;;;;5038005;28;20211;-76
2021/05/22 13:00:10;;;;;;;1.50;1.10;;;;;;;;;;5041831;28;20234;-76
2021/05/22 13:02:48;;;;;;;2.53;1.20;;;;;;;;;;5042626;28;20721;-76
2021/05/22 13:05:27;;;;;;;1.27;0.88;;;;;;;;;;5081852;28;20206;-77
2021/05/22 13:07:56;;;;;;;1.60;1.20;;;;;;;;;;5032498;28;20204;-76
2021/05/22 13:10:26;;;;;;;1.05;0.95;;;;;;;;;;5045340;28;20230;-74
2021/05/22 13:12:59;;;;;;;2.03;1.00;;;;;;;;;;5048745;28;20196;-74
2021/05/22 13:15:33;;;;;;;0.90;0.90;;;;;;;;;;5048881;28;20234;-73
2021/05/22 13:18:03;;;;;;;1.02;0.90;;;;;;;;;;5047600;28;20203;-76
2021/05/22 13:20:33;;;;;;;0.80;0.80;;;;;;;;;;5046608;28;20226;-74
2021/05/22 13:23:14;;;;;;;2.90;0.93;;;;;;;;;;5025906;28;20211;-75
2021/05/22 13:25:43;;;;;;;2.80;1.00;;;;;;;;;;5043872;28;20196;-74
2021/05/22 13:28:12;;;;;;;1.73;1.08;;;;;;;;;;5042844;28;20202;-74
2021/05/22 13:30:43;;;;;;;1.60;1.20;;;;;;;;;;5058747;28;20298;-75
2021/05/22 13:33:11;;;;;;;1.42;1.20;;;;;;;;;;5029984;28;20203;-74
2021/05/22 13:35:40;;;;;;;1.20;1.10;;;;;;;;;;5040700;28;20223;-74
2021/05/22 13:38:08;;;;;;;1.85;1.10;;;;;;;;;;5049072;28;20238;-75
2021/05/22 13:40:38;;;;;;;1.60;0.90;;;;;;;;;;5043827;28;20596;-75
2021/05/22 13:43:08;;;;;;;2.33;0.95;;;;;;;;;;5047210;28;20200;-75
2021/05/22 13:45:36;;;;;;;1.08;0.98;;;;;;;;;;5030651;28;20203;-75
2021/05/22 13:48:06;;;;;;;1.55;0.80;;;;;;;;;;5030758;28;20208;-75
2021/05/22 13:50:35;;;;;;;1.45;1.00;;;;;;;;;;5030235;28;20223;-74
2021/05/22 13:53:03;;;;;;;1.52;0.88;;;;;;;;;;5047114;28;20211;-75
2021/05/22 13:55:31;;;;;;;2.05;0.95;;;;;;;;;;5030587;28;20226;-75
2021/05/22 13:58:00;;;;;;;3.47;1.15;;;;;;;;;;5030563;28;20207;-75
2021/05/22 14:00:28;;;;;;;1.38;0.90;;;;;;;;;;5042606;28;20230;-76
2021/05/22 14:02:56;;;;;;;1.42;0.90;;;;;;;;;;5041215;28;20210;-76
2021/05/22 14:05:25;;;;;;;1.15;0.85;;;;;;;;;;5044748;28;20645;-75
2021/05/22 14:07:53;;;;;;;2.13;0.73;;;;;;;;;;5046090;28;20207;-75
2021/05/22 14:10:21;;;;;;;2.05;0.80;;;;;;;;;;5032861;28;20324;-75
2021/05/22 14:12:49;;;;;;;1.80;0.93;;;;;;;;;;5058960;28;20199;-77
2021/05/22 14:15:18;;;;;;;1.52;0.90;;;;;;;;;;5048995;28;20232;-76
2021/05/22 14:17:46;;;;;;;1.17;0.80;;;;;;;;;;5050946;28;20195;-75
2021/05/22 14:20:17;;;;;;;3.15;0.90;;;;;;;;;;5050722;28;20220;-77
2021/05/22 14:22:46;;;;;;;1.50;0.80;;;;;;;;;;5054422;28;20210;-77
2021/05/22 14:25:16;;;;;;;1.17;0.80;;;;;;;;;;5043970;28;20249;-76
2021/05/22 14:27:44;;;;;;;2.28;1.10;;;;;;;;;;5023411;28;20215;-76
2021/05/22 14:30:14;;;;;;;2.03;1.02;;;;;;;;;;5027129;28;22680;-76
2021/05/22 14:32:43;;;;;;;2.05;1.05;;;;;;;;;;5047040;28;20317;-77
2021/05/22 14:35:13;;;;;;;1.63;0.98;;;;;;;;;;5026454;28;20222;-77
2021/05/22 14:37:42;;;;;;;1.35;0.90;;;;;;;;;;5077607;28;20215;-77
2021/05/22 14:40:12;;;;;;;0.80;0.70;;;;;;;;;;5026232;28;20331;-76
2021/05/22 14:42:40;;;;;;;3.28;0.80;;;;;;;;;;5030271;28;20639;-77
2021/05/22 14:45:10;;;;;;;2.65;1.25;;;;;;;;;;5043296;28;20211;-75
2021/05/22 14:47:41;;;;;;;1.98;1.00;;;;;;;;;;5058794;28;20543;-78
2021/05/22 14:50:10;;;;;;;2.33;1.10;;;;;;;;;;5030864;28;20230;-78
2021/05/22 14:52:38;;;;;;;1.55;0.98;;;;;;;;;;5044452;28;20689;-78
2021/05/22 14:55:08;;;;;;;1.48;1.15;;;;;;;;;;5046212;28;20547;-78
2021/05/22 14:57:37;;;;;;;1.20;1.10;;;;;;;;;;5049086;28;20363;-78
2021/05/22 15:00:09;;;;;;;1.67;1.20;;;;;;;;;;5045331;28;20224;-78
2021/05/22 15:02:37;;;;;;;1.88;1.30;;;;;;;;;;5038473;28;20207;-76